<?xml version="1.0" encoding="UTF-8" standalone="no" ?>
<gpx xmlns="http://www.topografix.com/GPX/1/1" xmlns:xsi="http://www.w3.org/2001/XMLSchema-instance" xsi:schemaLocation="http://www.topografix.com/GPX/1/1 http://www.topografix.com/GPX/1/1/gpx.xsd" version="1.1" creator="VisuGPX - https://www.visugpx.com">
  <metadata>
    <name>La Barben (grand tour)</name>
  </metadata>
  <trk>
    <name><![CDATA[La Barben grand tour]]></name>
    <trkseg>
      <trkpt lat="43.62495" lon="5.20494">
        <ele>120</ele>
        <time>2020-05-26T12:04:57Z</time>
      </trkpt>
      <trkpt lat="43.62504" lon="5.20491">
        <ele>118</ele>
        <time>2020-05-26T12:05:30Z</time>
      </trkpt>
      <trkpt lat="43.62513" lon="5.20488">
        <ele>116</ele>
        <time>2020-05-26T12:06:48Z</time>
      </trkpt>
      <trkpt lat="43.62522" lon="5.20487">
        <ele>116</ele>
        <time>2020-05-26T12:07:37Z</time>
      </trkpt>
      <trkpt lat="43.62532" lon="5.20485">
        <ele>118</ele>
        <time>2020-05-26T12:08:25Z</time>
      </trkpt>
      <trkpt lat="43.62542" lon="5.20487">
        <ele>117</ele>
        <time>2020-05-26T12:09:13Z</time>
      </trkpt>
      <trkpt lat="43.62886" lon="5.20547">
        <ele>109</ele>
        <time>2020-05-26T12:09:56Z</time>
      </trkpt>
      <trkpt lat="43.62895" lon="5.20548">
        <ele>108</ele>
        <time>2020-05-26T12:10:20Z</time>
      </trkpt>
      <trkpt lat="43.629" lon="5.2056">
        <ele>109</ele>
        <time>2020-05-26T12:10:38Z</time>
      </trkpt>
      <trkpt lat="43.62905" lon="5.20571">
        <ele>109</ele>
        <time>2020-05-26T12:10:52Z</time>
      </trkpt>
      <trkpt lat="43.62901" lon="5.20582">
        <ele>112</ele>
        <time>2020-05-26T12:11:16Z</time>
      </trkpt>
      <trkpt lat="43.62895" lon="5.20593">
        <ele>115</ele>
        <time>2020-05-26T12:11:28Z</time>
      </trkpt>
      <trkpt lat="43.62902" lon="5.20584">
        <ele>118</ele>
        <time>2020-05-26T12:12:03Z</time>
      </trkpt>
      <trkpt lat="43.62907" lon="5.20574">
        <ele>116</ele>
        <time>2020-05-26T12:12:16Z</time>
      </trkpt>
      <trkpt lat="43.62912" lon="5.20586">
        <ele>114</ele>
        <time>2020-05-26T12:12:29Z</time>
      </trkpt>
      <trkpt lat="43.62915" lon="5.20599">
        <ele>114</ele>
        <time>2020-05-26T12:12:41Z</time>
      </trkpt>
      <trkpt lat="43.62916" lon="5.20611">
        <ele>114</ele>
        <time>2020-05-26T12:12:51Z</time>
      </trkpt>
      <trkpt lat="43.62914" lon="5.20623">
        <ele>114</ele>
        <time>2020-05-26T12:13:04Z</time>
      </trkpt>
      <trkpt lat="43.62915" lon="5.2061">
        <ele>111</ele>
        <time>2020-05-26T12:14:21Z</time>
      </trkpt>
      <trkpt lat="43.62916" lon="5.20597">
        <ele>111</ele>
        <time>2020-05-26T12:14:29Z</time>
      </trkpt>
      <trkpt lat="43.62915" lon="5.20584">
        <ele>114</ele>
        <time>2020-05-26T12:14:38Z</time>
      </trkpt>
      <trkpt lat="43.6291" lon="5.20573">
        <ele>113</ele>
        <time>2020-05-26T12:14:51Z</time>
      </trkpt>
      <trkpt lat="43.62904" lon="5.20561">
        <ele>112</ele>
        <time>2020-05-26T12:15:02Z</time>
      </trkpt>
      <trkpt lat="43.62903" lon="5.20548">
        <ele>110</ele>
        <time>2020-05-26T12:15:22Z</time>
      </trkpt>
      <trkpt lat="43.62912" lon="5.20542">
        <ele>110</ele>
        <time>2020-05-26T12:15:39Z</time>
      </trkpt>
      <trkpt lat="43.62922" lon="5.20537">
        <ele>112</ele>
        <time>2020-05-26T12:15:59Z</time>
      </trkpt>
      <trkpt lat="43.62932" lon="5.20534">
        <ele>112</ele>
        <time>2020-05-26T12:16:11Z</time>
      </trkpt>
      <trkpt lat="43.62941" lon="5.20534">
        <ele>112</ele>
        <time>2020-05-26T12:16:22Z</time>
      </trkpt>
      <trkpt lat="43.62951" lon="5.20529">
        <ele>114</ele>
        <time>2020-05-26T12:16:33Z</time>
      </trkpt>
      <trkpt lat="43.6296" lon="5.20525">
        <ele>114</ele>
        <time>2020-05-26T12:16:44Z</time>
      </trkpt>
      <trkpt lat="43.6297" lon="5.20522">
        <ele>112</ele>
        <time>2020-05-26T12:16:54Z</time>
      </trkpt>
      <trkpt lat="43.62979" lon="5.2052">
        <ele>112</ele>
        <time>2020-05-26T12:17:04Z</time>
      </trkpt>
      <trkpt lat="43.62989" lon="5.20517">
        <ele>111</ele>
        <time>2020-05-26T12:17:14Z</time>
      </trkpt>
      <trkpt lat="43.62998" lon="5.20513">
        <ele>112</ele>
        <time>2020-05-26T12:17:25Z</time>
      </trkpt>
      <trkpt lat="43.63007" lon="5.2051">
        <ele>113</ele>
        <time>2020-05-26T12:17:33Z</time>
      </trkpt>
      <trkpt lat="43.63017" lon="5.20509">
        <ele>113</ele>
        <time>2020-05-26T12:17:42Z</time>
      </trkpt>
      <trkpt lat="43.63028" lon="5.20507">
        <ele>112</ele>
        <time>2020-05-26T12:18:02Z</time>
      </trkpt>
      <trkpt lat="43.63038" lon="5.20505">
        <ele>113</ele>
        <time>2020-05-26T12:18:23Z</time>
      </trkpt>
      <trkpt lat="43.63046" lon="5.20498">
        <ele>114</ele>
        <time>2020-05-26T12:18:50Z</time>
      </trkpt>
      <trkpt lat="43.63055" lon="5.20497">
        <ele>115</ele>
        <time>2020-05-26T12:19:03Z</time>
      </trkpt>
      <trkpt lat="43.63063" lon="5.20506">
        <ele>114</ele>
        <time>2020-05-26T12:19:15Z</time>
      </trkpt>
      <trkpt lat="43.6307" lon="5.20515">
        <ele>114</ele>
        <time>2020-05-26T12:19:30Z</time>
      </trkpt>
      <trkpt lat="43.63078" lon="5.20522">
        <ele>115</ele>
        <time>2020-05-26T12:19:39Z</time>
      </trkpt>
      <trkpt lat="43.63084" lon="5.20532">
        <ele>114</ele>
        <time>2020-05-26T12:19:51Z</time>
      </trkpt>
      <trkpt lat="43.63091" lon="5.20542">
        <ele>115</ele>
        <time>2020-05-26T12:20:02Z</time>
      </trkpt>
      <trkpt lat="43.63096" lon="5.20553">
        <ele>114</ele>
        <time>2020-05-26T12:20:14Z</time>
      </trkpt>
      <trkpt lat="43.63098" lon="5.20565">
        <ele>115</ele>
        <time>2020-05-26T12:20:25Z</time>
      </trkpt>
      <trkpt lat="43.63102" lon="5.20577">
        <ele>114</ele>
        <time>2020-05-26T12:20:34Z</time>
      </trkpt>
      <trkpt lat="43.63108" lon="5.20587">
        <ele>116</ele>
        <time>2020-05-26T12:20:46Z</time>
      </trkpt>
      <trkpt lat="43.63112" lon="5.20599">
        <ele>116</ele>
        <time>2020-05-26T12:20:57Z</time>
      </trkpt>
      <trkpt lat="43.63115" lon="5.20611">
        <ele>115</ele>
        <time>2020-05-26T12:21:06Z</time>
      </trkpt>
      <trkpt lat="43.63116" lon="5.20625">
        <ele>116</ele>
        <time>2020-05-26T12:21:18Z</time>
      </trkpt>
      <trkpt lat="43.63114" lon="5.20639">
        <ele>116</ele>
        <time>2020-05-26T12:21:29Z</time>
      </trkpt>
      <trkpt lat="43.63115" lon="5.20652">
        <ele>115</ele>
        <time>2020-05-26T12:21:41Z</time>
      </trkpt>
      <trkpt lat="43.63117" lon="5.20665">
        <ele>115</ele>
        <time>2020-05-26T12:23:11Z</time>
      </trkpt>
      <trkpt lat="43.63113" lon="5.20677">
        <ele>115</ele>
        <time>2020-05-26T12:24:42Z</time>
      </trkpt>
      <trkpt lat="43.63113" lon="5.2069">
        <ele>113</ele>
        <time>2020-05-26T12:24:56Z</time>
      </trkpt>
      <trkpt lat="43.6311" lon="5.20705">
        <ele>113</ele>
        <time>2020-05-26T12:25:11Z</time>
      </trkpt>
      <trkpt lat="43.63107" lon="5.20718">
        <ele>112</ele>
        <time>2020-05-26T12:25:21Z</time>
      </trkpt>
      <trkpt lat="43.63103" lon="5.20732">
        <ele>114</ele>
        <time>2020-05-26T12:25:32Z</time>
      </trkpt>
      <trkpt lat="43.63101" lon="5.20745">
        <ele>113</ele>
        <time>2020-05-26T12:25:43Z</time>
      </trkpt>
      <trkpt lat="43.63095" lon="5.20757">
        <ele>114</ele>
        <time>2020-05-26T12:25:55Z</time>
      </trkpt>
      <trkpt lat="43.63093" lon="5.2077">
        <ele>113</ele>
        <time>2020-05-26T12:26:04Z</time>
      </trkpt>
      <trkpt lat="43.63093" lon="5.20782">
        <ele>117</ele>
        <time>2020-05-26T12:26:16Z</time>
      </trkpt>
      <trkpt lat="43.63092" lon="5.20796">
        <ele>114</ele>
        <time>2020-05-26T12:26:29Z</time>
      </trkpt>
      <trkpt lat="43.63092" lon="5.20809">
        <ele>116</ele>
        <time>2020-05-26T12:26:40Z</time>
      </trkpt>
      <trkpt lat="43.63092" lon="5.20823">
        <ele>115</ele>
        <time>2020-05-26T12:26:53Z</time>
      </trkpt>
      <trkpt lat="43.63095" lon="5.20835">
        <ele>115</ele>
        <time>2020-05-26T12:27:01Z</time>
      </trkpt>
      <trkpt lat="43.631" lon="5.20848">
        <ele>116</ele>
        <time>2020-05-26T12:27:18Z</time>
      </trkpt>
      <trkpt lat="43.63103" lon="5.2086">
        <ele>116</ele>
        <time>2020-05-26T12:27:31Z</time>
      </trkpt>
      <trkpt lat="43.63107" lon="5.20873">
        <ele>123</ele>
        <time>2020-05-26T12:27:51Z</time>
      </trkpt>
      <trkpt lat="43.63111" lon="5.20885">
        <ele>121</ele>
        <time>2020-05-26T12:28:03Z</time>
      </trkpt>
      <trkpt lat="43.63116" lon="5.20895">
        <ele>118</ele>
        <time>2020-05-26T12:28:15Z</time>
      </trkpt>
      <trkpt lat="43.63117" lon="5.20908">
        <ele>121</ele>
        <time>2020-05-26T12:28:31Z</time>
      </trkpt>
      <trkpt lat="43.63122" lon="5.20919">
        <ele>123</ele>
        <time>2020-05-26T12:28:44Z</time>
      </trkpt>
      <trkpt lat="43.63126" lon="5.2093">
        <ele>123</ele>
        <time>2020-05-26T12:28:55Z</time>
      </trkpt>
      <trkpt lat="43.6312" lon="5.2092">
        <ele>119</ele>
        <time>2020-05-26T12:30:17Z</time>
      </trkpt>
      <trkpt lat="43.63119" lon="5.20907">
        <ele>117</ele>
        <time>2020-05-26T12:30:28Z</time>
      </trkpt>
      <trkpt lat="43.63121" lon="5.20893">
        <ele>115</ele>
        <time>2020-05-26T12:30:41Z</time>
      </trkpt>
      <trkpt lat="43.63125" lon="5.20882">
        <ele>116</ele>
        <time>2020-05-26T12:30:52Z</time>
      </trkpt>
      <trkpt lat="43.63134" lon="5.20876">
        <ele>118</ele>
        <time>2020-05-26T12:31:04Z</time>
      </trkpt>
      <trkpt lat="43.63143" lon="5.20881">
        <ele>119</ele>
        <time>2020-05-26T12:31:15Z</time>
      </trkpt>
      <trkpt lat="43.63152" lon="5.20883">
        <ele>118</ele>
        <time>2020-05-26T12:31:26Z</time>
      </trkpt>
      <trkpt lat="43.63161" lon="5.20884">
        <ele>118</ele>
        <time>2020-05-26T12:31:35Z</time>
      </trkpt>
      <trkpt lat="43.63171" lon="5.20883">
        <ele>117</ele>
        <time>2020-05-26T12:31:45Z</time>
      </trkpt>
      <trkpt lat="43.63181" lon="5.20882">
        <ele>118</ele>
        <time>2020-05-26T12:31:55Z</time>
      </trkpt>
      <trkpt lat="43.6319" lon="5.20879">
        <ele>118</ele>
        <time>2020-05-26T12:32:04Z</time>
      </trkpt>
      <trkpt lat="43.63199" lon="5.20876">
        <ele>119</ele>
        <time>2020-05-26T12:32:14Z</time>
      </trkpt>
      <trkpt lat="43.63207" lon="5.20872">
        <ele>118</ele>
        <time>2020-05-26T12:32:24Z</time>
      </trkpt>
      <trkpt lat="43.63216" lon="5.20868">
        <ele>121</ele>
        <time>2020-05-26T12:32:37Z</time>
      </trkpt>
      <trkpt lat="43.63226" lon="5.20865">
        <ele>121</ele>
        <time>2020-05-26T12:32:47Z</time>
      </trkpt>
      <trkpt lat="43.63234" lon="5.20858">
        <ele>119</ele>
        <time>2020-05-26T12:32:56Z</time>
      </trkpt>
      <trkpt lat="43.63241" lon="5.2085">
        <ele>119</ele>
        <time>2020-05-26T12:33:06Z</time>
      </trkpt>
      <trkpt lat="43.63248" lon="5.20842">
        <ele>119</ele>
        <time>2020-05-26T12:33:17Z</time>
      </trkpt>
      <trkpt lat="43.63256" lon="5.20836">
        <ele>120</ele>
        <time>2020-05-26T12:33:27Z</time>
      </trkpt>
      <trkpt lat="43.63266" lon="5.20831">
        <ele>121</ele>
        <time>2020-05-26T12:33:40Z</time>
      </trkpt>
      <trkpt lat="43.63275" lon="5.20825">
        <ele>122</ele>
        <time>2020-05-26T12:33:53Z</time>
      </trkpt>
      <trkpt lat="43.63283" lon="5.2082">
        <ele>121</ele>
        <time>2020-05-26T12:34:03Z</time>
      </trkpt>
      <trkpt lat="43.63292" lon="5.20815">
        <ele>120</ele>
        <time>2020-05-26T12:34:17Z</time>
      </trkpt>
      <trkpt lat="43.63302" lon="5.20809">
        <ele>119</ele>
        <time>2020-05-26T12:34:31Z</time>
      </trkpt>
      <trkpt lat="43.6331" lon="5.20805">
        <ele>119</ele>
        <time>2020-05-26T12:34:41Z</time>
      </trkpt>
      <trkpt lat="43.6332" lon="5.20802">
        <ele>119</ele>
        <time>2020-05-26T12:34:50Z</time>
      </trkpt>
      <trkpt lat="43.63329" lon="5.20799">
        <ele>120</ele>
        <time>2020-05-26T12:35:01Z</time>
      </trkpt>
      <trkpt lat="43.63338" lon="5.20795">
        <ele>120</ele>
        <time>2020-05-26T12:35:11Z</time>
      </trkpt>
      <trkpt lat="43.63347" lon="5.20798">
        <ele>120</ele>
        <time>2020-05-26T12:35:22Z</time>
      </trkpt>
      <trkpt lat="43.63356" lon="5.20804">
        <ele>120</ele>
        <time>2020-05-26T12:35:36Z</time>
      </trkpt>
      <trkpt lat="43.63365" lon="5.20812">
        <ele>122</ele>
        <time>2020-05-26T12:35:50Z</time>
      </trkpt>
      <trkpt lat="43.63372" lon="5.2082">
        <ele>122</ele>
        <time>2020-05-26T12:36:00Z</time>
      </trkpt>
      <trkpt lat="43.6338" lon="5.20826">
        <ele>121</ele>
        <time>2020-05-26T12:36:10Z</time>
      </trkpt>
      <trkpt lat="43.63387" lon="5.20835">
        <ele>123</ele>
        <time>2020-05-26T12:36:19Z</time>
      </trkpt>
      <trkpt lat="43.63394" lon="5.20843">
        <ele>124</ele>
        <time>2020-05-26T12:36:27Z</time>
      </trkpt>
      <trkpt lat="43.63401" lon="5.20853">
        <ele>126</ele>
        <time>2020-05-26T12:36:39Z</time>
      </trkpt>
      <trkpt lat="43.63406" lon="5.20863">
        <ele>127</ele>
        <time>2020-05-26T12:36:50Z</time>
      </trkpt>
      <trkpt lat="43.63409" lon="5.20875">
        <ele>128</ele>
        <time>2020-05-26T12:37:01Z</time>
      </trkpt>
      <trkpt lat="43.63413" lon="5.20886">
        <ele>128</ele>
        <time>2020-05-26T12:37:14Z</time>
      </trkpt>
      <trkpt lat="43.63416" lon="5.20898">
        <ele>128</ele>
        <time>2020-05-26T12:37:24Z</time>
      </trkpt>
      <trkpt lat="43.63419" lon="5.20911">
        <ele>126</ele>
        <time>2020-05-26T12:37:34Z</time>
      </trkpt>
      <trkpt lat="43.63424" lon="5.20923">
        <ele>127</ele>
        <time>2020-05-26T12:37:44Z</time>
      </trkpt>
      <trkpt lat="43.63429" lon="5.20933">
        <ele>126</ele>
        <time>2020-05-26T12:37:55Z</time>
      </trkpt>
      <trkpt lat="43.63434" lon="5.20945">
        <ele>125</ele>
        <time>2020-05-26T12:38:05Z</time>
      </trkpt>
      <trkpt lat="43.6344" lon="5.20955">
        <ele>125</ele>
        <time>2020-05-26T12:38:14Z</time>
      </trkpt>
      <trkpt lat="43.63446" lon="5.20967">
        <ele>126</ele>
        <time>2020-05-26T12:38:26Z</time>
      </trkpt>
      <trkpt lat="43.63452" lon="5.20976">
        <ele>124</ele>
        <time>2020-05-26T12:38:35Z</time>
      </trkpt>
      <trkpt lat="43.63458" lon="5.20986">
        <ele>127</ele>
        <time>2020-05-26T12:38:44Z</time>
      </trkpt>
      <trkpt lat="43.63464" lon="5.20999">
        <ele>126</ele>
        <time>2020-05-26T12:38:57Z</time>
      </trkpt>
      <trkpt lat="43.63469" lon="5.21011">
        <ele>127</ele>
        <time>2020-05-26T12:39:07Z</time>
      </trkpt>
      <trkpt lat="43.63472" lon="5.21024">
        <ele>128</ele>
        <time>2020-05-26T12:39:15Z</time>
      </trkpt>
      <trkpt lat="43.63475" lon="5.21036">
        <ele>126</ele>
        <time>2020-05-26T12:39:26Z</time>
      </trkpt>
      <trkpt lat="43.63483" lon="5.21043">
        <ele>126</ele>
        <time>2020-05-26T12:39:36Z</time>
      </trkpt>
      <trkpt lat="43.63492" lon="5.21047">
        <ele>127</ele>
        <time>2020-05-26T12:39:49Z</time>
      </trkpt>
      <trkpt lat="43.63499" lon="5.21056">
        <ele>127</ele>
        <time>2020-05-26T12:40:00Z</time>
      </trkpt>
      <trkpt lat="43.63503" lon="5.21067">
        <ele>127</ele>
        <time>2020-05-26T12:40:08Z</time>
      </trkpt>
      <trkpt lat="43.63511" lon="5.21073">
        <ele>128</ele>
        <time>2020-05-26T12:40:18Z</time>
      </trkpt>
      <trkpt lat="43.63519" lon="5.21079">
        <ele>129</ele>
        <time>2020-05-26T12:40:29Z</time>
      </trkpt>
      <trkpt lat="43.63526" lon="5.21088">
        <ele>130</ele>
        <time>2020-05-26T12:40:42Z</time>
      </trkpt>
      <trkpt lat="43.63535" lon="5.21096">
        <ele>129</ele>
        <time>2020-05-26T12:40:54Z</time>
      </trkpt>
      <trkpt lat="43.63541" lon="5.21106">
        <ele>126</ele>
        <time>2020-05-26T12:41:10Z</time>
      </trkpt>
      <trkpt lat="43.6355" lon="5.21114">
        <ele>127</ele>
        <time>2020-05-26T12:41:20Z</time>
      </trkpt>
      <trkpt lat="43.63556" lon="5.21124">
        <ele>129</ele>
        <time>2020-05-26T12:41:29Z</time>
      </trkpt>
      <trkpt lat="43.63563" lon="5.21133">
        <ele>129</ele>
        <time>2020-05-26T12:41:38Z</time>
      </trkpt>
      <trkpt lat="43.63569" lon="5.21142">
        <ele>127</ele>
        <time>2020-05-26T12:41:50Z</time>
      </trkpt>
      <trkpt lat="43.63575" lon="5.21154">
        <ele>128</ele>
        <time>2020-05-26T12:41:58Z</time>
      </trkpt>
      <trkpt lat="43.63581" lon="5.21163">
        <ele>128</ele>
        <time>2020-05-26T12:42:08Z</time>
      </trkpt>
      <trkpt lat="43.63587" lon="5.21173">
        <ele>128</ele>
        <time>2020-05-26T12:42:19Z</time>
      </trkpt>
      <trkpt lat="43.63591" lon="5.21186">
        <ele>128</ele>
        <time>2020-05-26T12:42:32Z</time>
      </trkpt>
      <trkpt lat="43.63594" lon="5.21199">
        <ele>128</ele>
        <time>2020-05-26T12:42:42Z</time>
      </trkpt>
      <trkpt lat="43.63598" lon="5.2121">
        <ele>128</ele>
        <time>2020-05-26T12:42:52Z</time>
      </trkpt>
      <trkpt lat="43.63602" lon="5.21222">
        <ele>126</ele>
        <time>2020-05-26T12:43:00Z</time>
      </trkpt>
      <trkpt lat="43.63604" lon="5.21234">
        <ele>129</ele>
        <time>2020-05-26T12:43:10Z</time>
      </trkpt>
      <trkpt lat="43.63606" lon="5.21247">
        <ele>130</ele>
        <time>2020-05-26T12:43:20Z</time>
      </trkpt>
      <trkpt lat="43.63609" lon="5.21259">
        <ele>130</ele>
        <time>2020-05-26T12:43:30Z</time>
      </trkpt>
      <trkpt lat="43.63608" lon="5.21272">
        <ele>131</ele>
        <time>2020-05-26T12:43:40Z</time>
      </trkpt>
      <trkpt lat="43.63605" lon="5.21285">
        <ele>131</ele>
        <time>2020-05-26T12:43:50Z</time>
      </trkpt>
      <trkpt lat="43.63599" lon="5.21295">
        <ele>133</ele>
        <time>2020-05-26T12:43:59Z</time>
      </trkpt>
      <trkpt lat="43.63592" lon="5.21305">
        <ele>132</ele>
        <time>2020-05-26T12:44:11Z</time>
      </trkpt>
      <trkpt lat="43.63586" lon="5.21316">
        <ele>131</ele>
        <time>2020-05-26T12:44:21Z</time>
      </trkpt>
      <trkpt lat="43.63582" lon="5.21327">
        <ele>129</ele>
        <time>2020-05-26T12:44:33Z</time>
      </trkpt>
      <trkpt lat="43.63578" lon="5.21338">
        <ele>132</ele>
        <time>2020-05-26T12:44:40Z</time>
      </trkpt>
      <trkpt lat="43.63573" lon="5.21349">
        <ele>134</ele>
        <time>2020-05-26T12:44:49Z</time>
      </trkpt>
      <trkpt lat="43.63573" lon="5.21362">
        <ele>136</ele>
        <time>2020-05-26T12:44:59Z</time>
      </trkpt>
      <trkpt lat="43.6357" lon="5.21374">
        <ele>136</ele>
        <time>2020-05-26T12:45:11Z</time>
      </trkpt>
      <trkpt lat="43.63566" lon="5.21386">
        <ele>132</ele>
        <time>2020-05-26T12:46:15Z</time>
      </trkpt>
      <trkpt lat="43.63558" lon="5.21392">
        <ele>131</ele>
        <time>2020-05-26T12:51:50Z</time>
      </trkpt>
      <trkpt lat="43.63551" lon="5.21402">
        <ele>130</ele>
        <time>2020-05-26T12:52:02Z</time>
      </trkpt>
      <trkpt lat="43.63546" lon="5.21413">
        <ele>131</ele>
        <time>2020-05-26T12:52:13Z</time>
      </trkpt>
      <trkpt lat="43.63542" lon="5.21425">
        <ele>132</ele>
        <time>2020-05-26T12:52:23Z</time>
      </trkpt>
      <trkpt lat="43.63537" lon="5.21437">
        <ele>132</ele>
        <time>2020-05-26T12:52:33Z</time>
      </trkpt>
      <trkpt lat="43.63531" lon="5.21447">
        <ele>133</ele>
        <time>2020-05-26T12:52:43Z</time>
      </trkpt>
      <trkpt lat="43.63524" lon="5.21455">
        <ele>134</ele>
        <time>2020-05-26T12:52:54Z</time>
      </trkpt>
      <trkpt lat="43.63518" lon="5.21465">
        <ele>135</ele>
        <time>2020-05-26T12:53:04Z</time>
      </trkpt>
      <trkpt lat="43.63511" lon="5.21475">
        <ele>134</ele>
        <time>2020-05-26T12:53:13Z</time>
      </trkpt>
      <trkpt lat="43.63506" lon="5.21485">
        <ele>134</ele>
        <time>2020-05-26T12:53:23Z</time>
      </trkpt>
      <trkpt lat="43.635" lon="5.21495">
        <ele>135</ele>
        <time>2020-05-26T12:53:32Z</time>
      </trkpt>
      <trkpt lat="43.63494" lon="5.21506">
        <ele>137</ele>
        <time>2020-05-26T12:53:43Z</time>
      </trkpt>
      <trkpt lat="43.63493" lon="5.2152">
        <ele>134</ele>
        <time>2020-05-26T12:53:53Z</time>
      </trkpt>
      <trkpt lat="43.63495" lon="5.21532">
        <ele>133</ele>
        <time>2020-05-26T12:54:01Z</time>
      </trkpt>
      <trkpt lat="43.63499" lon="5.21544">
        <ele>133</ele>
        <time>2020-05-26T12:54:11Z</time>
      </trkpt>
      <trkpt lat="43.63505" lon="5.21554">
        <ele>133</ele>
        <time>2020-05-26T12:54:20Z</time>
      </trkpt>
      <trkpt lat="43.63508" lon="5.21566">
        <ele>131</ele>
        <time>2020-05-26T12:54:29Z</time>
      </trkpt>
      <trkpt lat="43.63514" lon="5.21576">
        <ele>132</ele>
        <time>2020-05-26T12:54:38Z</time>
      </trkpt>
      <trkpt lat="43.63519" lon="5.21586">
        <ele>132</ele>
        <time>2020-05-26T12:54:46Z</time>
      </trkpt>
      <trkpt lat="43.63524" lon="5.21598">
        <ele>132</ele>
        <time>2020-05-26T12:54:56Z</time>
      </trkpt>
      <trkpt lat="43.63531" lon="5.21607">
        <ele>132</ele>
        <time>2020-05-26T12:55:06Z</time>
      </trkpt>
      <trkpt lat="43.63536" lon="5.21618">
        <ele>133</ele>
        <time>2020-05-26T12:55:17Z</time>
      </trkpt>
      <trkpt lat="43.63542" lon="5.2163">
        <ele>134</ele>
        <time>2020-05-26T12:55:27Z</time>
      </trkpt>
      <trkpt lat="43.63548" lon="5.2164">
        <ele>135</ele>
        <time>2020-05-26T12:55:37Z</time>
      </trkpt>
      <trkpt lat="43.63553" lon="5.21652">
        <ele>135</ele>
        <time>2020-05-26T12:55:45Z</time>
      </trkpt>
      <trkpt lat="43.63558" lon="5.21663">
        <ele>136</ele>
        <time>2020-05-26T12:55:54Z</time>
      </trkpt>
      <trkpt lat="43.63564" lon="5.21673">
        <ele>134</ele>
        <time>2020-05-26T12:56:07Z</time>
      </trkpt>
      <trkpt lat="43.6357" lon="5.21683">
        <ele>133</ele>
        <time>2020-05-26T12:56:16Z</time>
      </trkpt>
      <trkpt lat="43.63578" lon="5.2169">
        <ele>133</ele>
        <time>2020-05-26T12:56:26Z</time>
      </trkpt>
      <trkpt lat="43.63585" lon="5.21698">
        <ele>132</ele>
        <time>2020-05-26T12:56:37Z</time>
      </trkpt>
      <trkpt lat="43.63594" lon="5.217">
        <ele>130</ele>
        <time>2020-05-26T12:56:48Z</time>
      </trkpt>
      <trkpt lat="43.63604" lon="5.21698">
        <ele>131</ele>
        <time>2020-05-26T12:56:55Z</time>
      </trkpt>
      <trkpt lat="43.63614" lon="5.21699">
        <ele>133</ele>
        <time>2020-05-26T12:57:07Z</time>
      </trkpt>
      <trkpt lat="43.63623" lon="5.21702">
        <ele>134</ele>
        <time>2020-05-26T12:57:25Z</time>
      </trkpt>
      <trkpt lat="43.63631" lon="5.2171">
        <ele>136</ele>
        <time>2020-05-26T12:57:35Z</time>
      </trkpt>
      <trkpt lat="43.63639" lon="5.21716">
        <ele>136</ele>
        <time>2020-05-26T12:57:45Z</time>
      </trkpt>
      <trkpt lat="43.63648" lon="5.2172">
        <ele>136</ele>
        <time>2020-05-26T12:57:52Z</time>
      </trkpt>
      <trkpt lat="43.63655" lon="5.21728">
        <ele>136</ele>
        <time>2020-05-26T12:58:02Z</time>
      </trkpt>
      <trkpt lat="43.6366" lon="5.21739">
        <ele>136</ele>
        <time>2020-05-26T12:58:16Z</time>
      </trkpt>
      <trkpt lat="43.63665" lon="5.21752">
        <ele>137</ele>
        <time>2020-05-26T12:58:28Z</time>
      </trkpt>
      <trkpt lat="43.6367" lon="5.21763">
        <ele>134</ele>
        <time>2020-05-26T12:58:44Z</time>
      </trkpt>
      <trkpt lat="43.63674" lon="5.21774">
        <ele>134</ele>
        <time>2020-05-26T12:59:09Z</time>
      </trkpt>
      <trkpt lat="43.6367" lon="5.21785">
        <ele>136</ele>
        <time>2020-05-26T12:59:28Z</time>
      </trkpt>
      <trkpt lat="43.63661" lon="5.21788">
        <ele>135</ele>
        <time>2020-05-26T12:59:46Z</time>
      </trkpt>
      <trkpt lat="43.63651" lon="5.21789">
        <ele>134</ele>
        <time>2020-05-26T12:59:59Z</time>
      </trkpt>
      <trkpt lat="43.63641" lon="5.21793">
        <ele>135</ele>
        <time>2020-05-26T13:00:08Z</time>
      </trkpt>
      <trkpt lat="43.63634" lon="5.21799">
        <ele>135</ele>
        <time>2020-05-26T13:00:17Z</time>
      </trkpt>
      <trkpt lat="43.63626" lon="5.21808">
        <ele>136</ele>
        <time>2020-05-26T13:00:28Z</time>
      </trkpt>
      <trkpt lat="43.63619" lon="5.21817">
        <ele>136</ele>
        <time>2020-05-26T13:00:37Z</time>
      </trkpt>
      <trkpt lat="43.6361" lon="5.21823">
        <ele>134</ele>
        <time>2020-05-26T13:00:50Z</time>
      </trkpt>
      <trkpt lat="43.636" lon="5.21824">
        <ele>134</ele>
        <time>2020-05-26T13:01:01Z</time>
      </trkpt>
      <trkpt lat="43.6359" lon="5.21825">
        <ele>134</ele>
        <time>2020-05-26T13:01:12Z</time>
      </trkpt>
      <trkpt lat="43.6358" lon="5.21827">
        <ele>133</ele>
        <time>2020-05-26T13:01:23Z</time>
      </trkpt>
      <trkpt lat="43.63571" lon="5.21826">
        <ele>134</ele>
        <time>2020-05-26T13:01:33Z</time>
      </trkpt>
      <trkpt lat="43.63563" lon="5.21818">
        <ele>134</ele>
        <time>2020-05-26T13:01:47Z</time>
      </trkpt>
      <trkpt lat="43.63555" lon="5.21813">
        <ele>134</ele>
        <time>2020-05-26T13:01:57Z</time>
      </trkpt>
      <trkpt lat="43.63546" lon="5.21806">
        <ele>136</ele>
        <time>2020-05-26T13:02:12Z</time>
      </trkpt>
      <trkpt lat="43.63538" lon="5.21801">
        <ele>139</ele>
        <time>2020-05-26T13:03:33Z</time>
      </trkpt>
      <trkpt lat="43.63529" lon="5.21803">
        <ele>142</ele>
        <time>2020-05-26T13:03:43Z</time>
      </trkpt>
      <trkpt lat="43.6352" lon="5.21804">
        <ele>144</ele>
        <time>2020-05-26T13:03:55Z</time>
      </trkpt>
      <trkpt lat="43.63511" lon="5.21808">
        <ele>145</ele>
        <time>2020-05-26T13:04:13Z</time>
      </trkpt>
      <trkpt lat="43.63502" lon="5.21812">
        <ele>146</ele>
        <time>2020-05-26T13:04:26Z</time>
      </trkpt>
      <trkpt lat="43.63493" lon="5.21814">
        <ele>147</ele>
        <time>2020-05-26T13:04:39Z</time>
      </trkpt>
      <trkpt lat="43.63483" lon="5.21812">
        <ele>149</ele>
        <time>2020-05-26T13:05:01Z</time>
      </trkpt>
      <trkpt lat="43.63474" lon="5.21811">
        <ele>150</ele>
        <time>2020-05-26T13:06:19Z</time>
      </trkpt>
      <trkpt lat="43.63466" lon="5.21818">
        <ele>151</ele>
        <time>2020-05-26T13:07:09Z</time>
      </trkpt>
      <trkpt lat="43.63469" lon="5.21832">
        <ele>153</ele>
        <time>2020-05-26T13:07:23Z</time>
      </trkpt>
      <trkpt lat="43.63471" lon="5.21845">
        <ele>153</ele>
        <time>2020-05-26T13:07:33Z</time>
      </trkpt>
      <trkpt lat="43.63473" lon="5.21858">
        <ele>152</ele>
        <time>2020-05-26T13:07:45Z</time>
      </trkpt>
      <trkpt lat="43.63477" lon="5.2187">
        <ele>151</ele>
        <time>2020-05-26T13:07:58Z</time>
      </trkpt>
      <trkpt lat="43.63482" lon="5.21881">
        <ele>151</ele>
        <time>2020-05-26T13:08:05Z</time>
      </trkpt>
      <trkpt lat="43.63485" lon="5.21892">
        <ele>150</ele>
        <time>2020-05-26T13:08:15Z</time>
      </trkpt>
      <trkpt lat="43.6349" lon="5.21904">
        <ele>149</ele>
        <time>2020-05-26T13:08:25Z</time>
      </trkpt>
      <trkpt lat="43.63492" lon="5.21916">
        <ele>149</ele>
        <time>2020-05-26T13:08:35Z</time>
      </trkpt>
      <trkpt lat="43.63494" lon="5.21929">
        <ele>149</ele>
        <time>2020-05-26T13:08:47Z</time>
      </trkpt>
      <trkpt lat="43.63493" lon="5.21941">
        <ele>150</ele>
        <time>2020-05-26T13:09:02Z</time>
      </trkpt>
      <trkpt lat="43.6349" lon="5.21954">
        <ele>151</ele>
        <time>2020-05-26T13:09:12Z</time>
      </trkpt>
      <trkpt lat="43.63485" lon="5.21965">
        <ele>149</ele>
        <time>2020-05-26T13:09:22Z</time>
      </trkpt>
      <trkpt lat="43.63478" lon="5.21976">
        <ele>149</ele>
        <time>2020-05-26T13:09:32Z</time>
      </trkpt>
      <trkpt lat="43.63472" lon="5.21986">
        <ele>148</ele>
        <time>2020-05-26T13:09:41Z</time>
      </trkpt>
      <trkpt lat="43.63466" lon="5.21996">
        <ele>148</ele>
        <time>2020-05-26T13:09:53Z</time>
      </trkpt>
      <trkpt lat="43.63457" lon="5.22001">
        <ele>147</ele>
        <time>2020-05-26T13:10:04Z</time>
      </trkpt>
      <trkpt lat="43.63449" lon="5.22005">
        <ele>146</ele>
        <time>2020-05-26T13:10:15Z</time>
      </trkpt>
      <trkpt lat="43.63442" lon="5.22014">
        <ele>143</ele>
        <time>2020-05-26T13:11:06Z</time>
      </trkpt>
      <trkpt lat="43.63433" lon="5.22017">
        <ele>146</ele>
        <time>2020-05-26T13:11:17Z</time>
      </trkpt>
      <trkpt lat="43.63423" lon="5.22015">
        <ele>148</ele>
        <time>2020-05-26T13:11:33Z</time>
      </trkpt>
      <trkpt lat="43.63413" lon="5.22012">
        <ele>150</ele>
        <time>2020-05-26T13:11:48Z</time>
      </trkpt>
      <trkpt lat="43.63404" lon="5.22007">
        <ele>151</ele>
        <time>2020-05-26T13:12:00Z</time>
      </trkpt>
      <trkpt lat="43.63397" lon="5.22001">
        <ele>150</ele>
        <time>2020-05-26T13:14:53Z</time>
      </trkpt>
      <trkpt lat="43.63387" lon="5.21997">
        <ele>152</ele>
        <time>2020-05-26T13:15:16Z</time>
      </trkpt>
      <trkpt lat="43.63379" lon="5.21992">
        <ele>152</ele>
        <time>2020-05-26T13:15:35Z</time>
      </trkpt>
      <trkpt lat="43.6337" lon="5.21987">
        <ele>151</ele>
        <time>2020-05-26T13:15:45Z</time>
      </trkpt>
      <trkpt lat="43.63361" lon="5.21983">
        <ele>151</ele>
        <time>2020-05-26T13:15:56Z</time>
      </trkpt>
      <trkpt lat="43.63353" lon="5.21978">
        <ele>151</ele>
        <time>2020-05-26T13:16:06Z</time>
      </trkpt>
      <trkpt lat="43.63344" lon="5.21974">
        <ele>151</ele>
        <time>2020-05-26T13:16:18Z</time>
      </trkpt>
      <trkpt lat="43.63335" lon="5.2197">
        <ele>153</ele>
        <time>2020-05-26T13:16:29Z</time>
      </trkpt>
      <trkpt lat="43.63326" lon="5.21965">
        <ele>155</ele>
        <time>2020-05-26T13:16:41Z</time>
      </trkpt>
      <trkpt lat="43.63317" lon="5.21961">
        <ele>156</ele>
        <time>2020-05-26T13:16:53Z</time>
      </trkpt>
      <trkpt lat="43.63309" lon="5.21953">
        <ele>156</ele>
        <time>2020-05-26T13:17:04Z</time>
      </trkpt>
      <trkpt lat="43.63301" lon="5.21945">
        <ele>155</ele>
        <time>2020-05-26T13:17:13Z</time>
      </trkpt>
      <trkpt lat="43.63295" lon="5.21936">
        <ele>156</ele>
        <time>2020-05-26T13:17:26Z</time>
      </trkpt>
      <trkpt lat="43.63289" lon="5.21925">
        <ele>157</ele>
        <time>2020-05-26T13:17:37Z</time>
      </trkpt>
      <trkpt lat="43.63284" lon="5.21914">
        <ele>160</ele>
        <time>2020-05-26T13:17:45Z</time>
      </trkpt>
      <trkpt lat="43.63282" lon="5.21902">
        <ele>160</ele>
        <time>2020-05-26T13:17:56Z</time>
      </trkpt>
      <trkpt lat="43.63279" lon="5.21889">
        <ele>163</ele>
        <time>2020-05-26T13:18:10Z</time>
      </trkpt>
      <trkpt lat="43.63277" lon="5.21877">
        <ele>162</ele>
        <time>2020-05-26T13:18:23Z</time>
      </trkpt>
      <trkpt lat="43.63276" lon="5.21865">
        <ele>163</ele>
        <time>2020-05-26T13:18:35Z</time>
      </trkpt>
      <trkpt lat="43.63274" lon="5.21852">
        <ele>164</ele>
        <time>2020-05-26T13:18:48Z</time>
      </trkpt>
      <trkpt lat="43.63272" lon="5.2184">
        <ele>166</ele>
        <time>2020-05-26T13:18:59Z</time>
      </trkpt>
      <trkpt lat="43.63268" lon="5.21829">
        <ele>166</ele>
        <time>2020-05-26T13:19:10Z</time>
      </trkpt>
      <trkpt lat="43.63262" lon="5.21819">
        <ele>166</ele>
        <time>2020-05-26T13:19:21Z</time>
      </trkpt>
      <trkpt lat="43.63257" lon="5.21808">
        <ele>167</ele>
        <time>2020-05-26T13:19:31Z</time>
      </trkpt>
      <trkpt lat="43.63252" lon="5.21796">
        <ele>168</ele>
        <time>2020-05-26T13:19:42Z</time>
      </trkpt>
      <trkpt lat="43.63249" lon="5.21784">
        <ele>167</ele>
        <time>2020-05-26T13:19:51Z</time>
      </trkpt>
      <trkpt lat="43.63245" lon="5.21773">
        <ele>165</ele>
        <time>2020-05-26T13:20:04Z</time>
      </trkpt>
      <trkpt lat="43.63241" lon="5.21761">
        <ele>163</ele>
        <time>2020-05-26T13:20:14Z</time>
      </trkpt>
      <trkpt lat="43.63235" lon="5.21751">
        <ele>162</ele>
        <time>2020-05-26T13:20:23Z</time>
      </trkpt>
      <trkpt lat="43.63229" lon="5.2174">
        <ele>163</ele>
        <time>2020-05-26T13:20:35Z</time>
      </trkpt>
      <trkpt lat="43.63223" lon="5.21731">
        <ele>162</ele>
        <time>2020-05-26T13:20:46Z</time>
      </trkpt>
      <trkpt lat="43.63215" lon="5.21722">
        <ele>161</ele>
        <time>2020-05-26T13:21:00Z</time>
      </trkpt>
      <trkpt lat="43.63208" lon="5.21712">
        <ele>160</ele>
        <time>2020-05-26T13:21:13Z</time>
      </trkpt>
      <trkpt lat="43.63204" lon="5.21701">
        <ele>157</ele>
        <time>2020-05-26T13:21:25Z</time>
      </trkpt>
      <trkpt lat="43.63198" lon="5.2169">
        <ele>156</ele>
        <time>2020-05-26T13:21:35Z</time>
      </trkpt>
      <trkpt lat="43.63195" lon="5.21679">
        <ele>156</ele>
        <time>2020-05-26T13:21:50Z</time>
      </trkpt>
      <trkpt lat="43.63189" lon="5.21668">
        <ele>158</ele>
        <time>2020-05-26T13:24:35Z</time>
      </trkpt>
      <trkpt lat="43.63183" lon="5.21658">
        <ele>160</ele>
        <time>2020-05-26T13:24:48Z</time>
      </trkpt>
      <trkpt lat="43.63179" lon="5.21646">
        <ele>159</ele>
        <time>2020-05-26T13:25:02Z</time>
      </trkpt>
      <trkpt lat="43.63173" lon="5.21636">
        <ele>160</ele>
        <time>2020-05-26T13:25:18Z</time>
      </trkpt>
      <trkpt lat="43.63165" lon="5.21629">
        <ele>163</ele>
        <time>2020-05-26T13:25:32Z</time>
      </trkpt>
      <trkpt lat="43.63164" lon="5.21616">
        <ele>163</ele>
        <time>2020-05-26T13:26:09Z</time>
      </trkpt>
      <trkpt lat="43.6316" lon="5.21604">
        <ele>163</ele>
        <time>2020-05-26T13:26:20Z</time>
      </trkpt>
      <trkpt lat="43.63156" lon="5.21592">
        <ele>162</ele>
        <time>2020-05-26T13:26:31Z</time>
      </trkpt>
      <trkpt lat="43.63154" lon="5.2158">
        <ele>161</ele>
        <time>2020-05-26T13:26:39Z</time>
      </trkpt>
      <trkpt lat="43.63153" lon="5.21567">
        <ele>160</ele>
        <time>2020-05-26T13:26:48Z</time>
      </trkpt>
      <trkpt lat="43.63149" lon="5.21556">
        <ele>160</ele>
        <time>2020-05-26T13:26:56Z</time>
      </trkpt>
      <trkpt lat="43.63142" lon="5.21547">
        <ele>161</ele>
        <time>2020-05-26T13:27:07Z</time>
      </trkpt>
      <trkpt lat="43.63134" lon="5.21539">
        <ele>162</ele>
        <time>2020-05-26T13:27:19Z</time>
      </trkpt>
      <trkpt lat="43.63129" lon="5.21529">
        <ele>161</ele>
        <time>2020-05-26T13:27:28Z</time>
      </trkpt>
      <trkpt lat="43.63125" lon="5.21517">
        <ele>160</ele>
        <time>2020-05-26T13:27:39Z</time>
      </trkpt>
      <trkpt lat="43.63121" lon="5.21505">
        <ele>160</ele>
        <time>2020-05-26T13:27:50Z</time>
      </trkpt>
      <trkpt lat="43.63116" lon="5.21495">
        <ele>159</ele>
        <time>2020-05-26T13:27:59Z</time>
      </trkpt>
      <trkpt lat="43.63112" lon="5.21483">
        <ele>160</ele>
        <time>2020-05-26T13:28:10Z</time>
      </trkpt>
      <trkpt lat="43.63106" lon="5.21474">
        <ele>163</ele>
        <time>2020-05-26T13:28:23Z</time>
      </trkpt>
      <trkpt lat="43.63098" lon="5.21467">
        <ele>164</ele>
        <time>2020-05-26T13:28:38Z</time>
      </trkpt>
      <trkpt lat="43.6309" lon="5.2146">
        <ele>166</ele>
        <time>2020-05-26T13:28:51Z</time>
      </trkpt>
      <trkpt lat="43.63085" lon="5.2145">
        <ele>166</ele>
        <time>2020-05-26T13:29:28Z</time>
      </trkpt>
      <trkpt lat="43.63081" lon="5.21437">
        <ele>167</ele>
        <time>2020-05-26T13:29:41Z</time>
      </trkpt>
      <trkpt lat="43.63079" lon="5.21425">
        <ele>169</ele>
        <time>2020-05-26T13:29:54Z</time>
      </trkpt>
      <trkpt lat="43.63076" lon="5.21413">
        <ele>171</ele>
        <time>2020-05-26T13:30:12Z</time>
      </trkpt>
      <trkpt lat="43.63073" lon="5.21401">
        <ele>174</ele>
        <time>2020-05-26T13:30:28Z</time>
      </trkpt>
      <trkpt lat="43.63074" lon="5.21388">
        <ele>175</ele>
        <time>2020-05-26T13:31:08Z</time>
      </trkpt>
      <trkpt lat="43.63075" lon="5.21375">
        <ele>177</ele>
        <time>2020-05-26T13:31:23Z</time>
      </trkpt>
      <trkpt lat="43.63068" lon="5.21367">
        <ele>176</ele>
        <time>2020-05-26T13:32:04Z</time>
      </trkpt>
      <trkpt lat="43.63075" lon="5.21358">
        <ele>178</ele>
        <time>2020-05-26T13:39:02Z</time>
      </trkpt>
      <trkpt lat="43.63078" lon="5.21346">
        <ele>176</ele>
        <time>2020-05-26T13:39:12Z</time>
      </trkpt>
      <trkpt lat="43.63081" lon="5.21333">
        <ele>176</ele>
        <time>2020-05-26T13:39:22Z</time>
      </trkpt>
      <trkpt lat="43.63082" lon="5.21319">
        <ele>176</ele>
        <time>2020-05-26T13:39:38Z</time>
      </trkpt>
      <trkpt lat="43.63087" lon="5.21309">
        <ele>176</ele>
        <time>2020-05-26T13:39:48Z</time>
      </trkpt>
      <trkpt lat="43.63094" lon="5.213">
        <ele>174</ele>
        <time>2020-05-26T13:39:59Z</time>
      </trkpt>
      <trkpt lat="43.631" lon="5.21289">
        <ele>174</ele>
        <time>2020-05-26T13:40:09Z</time>
      </trkpt>
      <trkpt lat="43.63107" lon="5.2128">
        <ele>174</ele>
        <time>2020-05-26T13:40:22Z</time>
      </trkpt>
      <trkpt lat="43.6311" lon="5.21266">
        <ele>172</ele>
        <time>2020-05-26T13:40:53Z</time>
      </trkpt>
      <trkpt lat="43.63107" lon="5.21254">
        <ele>171</ele>
        <time>2020-05-26T13:41:09Z</time>
      </trkpt>
      <trkpt lat="43.63102" lon="5.21244">
        <ele>170</ele>
        <time>2020-05-26T13:41:23Z</time>
      </trkpt>
      <trkpt lat="43.63103" lon="5.21231">
        <ele>168</ele>
        <time>2020-05-26T13:41:44Z</time>
      </trkpt>
      <trkpt lat="43.63108" lon="5.21218">
        <ele>164</ele>
        <time>2020-05-26T13:42:18Z</time>
      </trkpt>
      <trkpt lat="43.63109" lon="5.21205">
        <ele>160</ele>
        <time>2020-05-26T13:42:42Z</time>
      </trkpt>
      <trkpt lat="43.63112" lon="5.21192">
        <ele>156</ele>
        <time>2020-05-26T13:43:18Z</time>
      </trkpt>
      <trkpt lat="43.63108" lon="5.21178">
        <ele>152</ele>
        <time>2020-05-26T13:43:49Z</time>
      </trkpt>
      <trkpt lat="43.63109" lon="5.21165">
        <ele>152</ele>
        <time>2020-05-26T13:44:03Z</time>
      </trkpt>
      <trkpt lat="43.63112" lon="5.21152">
        <ele>152</ele>
        <time>2020-05-26T13:44:18Z</time>
      </trkpt>
      <trkpt lat="43.6311" lon="5.21139">
        <ele>148</ele>
        <time>2020-05-26T13:44:51Z</time>
      </trkpt>
      <trkpt lat="43.63114" lon="5.21127">
        <ele>146</ele>
        <time>2020-05-26T13:45:32Z</time>
      </trkpt>
      <trkpt lat="43.63113" lon="5.2114">
        <ele>143</ele>
        <time>2020-05-26T13:45:48Z</time>
      </trkpt>
      <trkpt lat="43.63109" lon="5.21153">
        <ele>147</ele>
        <time>2020-05-26T13:46:01Z</time>
      </trkpt>
      <trkpt lat="43.63107" lon="5.21165">
        <ele>150</ele>
        <time>2020-05-26T13:46:14Z</time>
      </trkpt>
      <trkpt lat="43.6311" lon="5.2115">
        <ele>152</ele>
        <time>2020-05-26T13:46:53Z</time>
      </trkpt>
      <trkpt lat="43.63108" lon="5.21137">
        <ele>150</ele>
        <time>2020-05-26T13:47:18Z</time>
      </trkpt>
      <trkpt lat="43.63111" lon="5.21125">
        <ele>147</ele>
        <time>2020-05-26T13:47:36Z</time>
      </trkpt>
      <trkpt lat="43.63115" lon="5.21113">
        <ele>143</ele>
        <time>2020-05-26T13:47:51Z</time>
      </trkpt>
      <trkpt lat="43.63121" lon="5.21102">
        <ele>141</ele>
        <time>2020-05-26T13:48:05Z</time>
      </trkpt>
      <trkpt lat="43.63125" lon="5.2109">
        <ele>136</ele>
        <time>2020-05-26T13:48:29Z</time>
      </trkpt>
      <trkpt lat="43.6313" lon="5.21078">
        <ele>137</ele>
        <time>2020-05-26T13:49:05Z</time>
      </trkpt>
      <trkpt lat="43.63135" lon="5.21066">
        <ele>136</ele>
        <time>2020-05-26T13:49:18Z</time>
      </trkpt>
      <trkpt lat="43.63139" lon="5.21055">
        <ele>136</ele>
        <time>2020-05-26T13:49:29Z</time>
      </trkpt>
      <trkpt lat="43.6314" lon="5.21042">
        <ele>133</ele>
        <time>2020-05-26T13:49:39Z</time>
      </trkpt>
      <trkpt lat="43.63137" lon="5.2103">
        <ele>133</ele>
        <time>2020-05-26T13:49:49Z</time>
      </trkpt>
      <trkpt lat="43.63139" lon="5.21018">
        <ele>130</ele>
        <time>2020-05-26T13:50:06Z</time>
      </trkpt>
      <trkpt lat="43.63144" lon="5.21006">
        <ele>130</ele>
        <time>2020-05-26T13:50:36Z</time>
      </trkpt>
      <trkpt lat="43.63147" lon="5.20993">
        <ele>131</ele>
        <time>2020-05-26T13:50:46Z</time>
      </trkpt>
      <trkpt lat="43.63153" lon="5.20983">
        <ele>131</ele>
        <time>2020-05-26T13:50:56Z</time>
      </trkpt>
      <trkpt lat="43.63155" lon="5.2097">
        <ele>129</ele>
        <time>2020-05-26T13:51:06Z</time>
      </trkpt>
      <trkpt lat="43.63152" lon="5.20957">
        <ele>128</ele>
        <time>2020-05-26T13:51:17Z</time>
      </trkpt>
      <trkpt lat="43.63145" lon="5.20949">
        <ele>128</ele>
        <time>2020-05-26T13:51:27Z</time>
      </trkpt>
      <trkpt lat="43.63137" lon="5.20942">
        <ele>127</ele>
        <time>2020-05-26T13:51:40Z</time>
      </trkpt>
      <trkpt lat="43.63131" lon="5.20932">
        <ele>126</ele>
        <time>2020-05-26T13:51:52Z</time>
      </trkpt>
      <trkpt lat="43.63125" lon="5.20922">
        <ele>126</ele>
        <time>2020-05-26T13:52:00Z</time>
      </trkpt>
      <trkpt lat="43.6312" lon="5.2091">
        <ele>126</ele>
        <time>2020-05-26T13:52:10Z</time>
      </trkpt>
      <trkpt lat="43.63122" lon="5.20898">
        <ele>122</ele>
        <time>2020-05-26T13:52:44Z</time>
      </trkpt>
      <trkpt lat="43.63123" lon="5.20885">
        <ele>118</ele>
        <time>2020-05-26T13:53:58Z</time>
      </trkpt>
      <trkpt lat="43.63125" lon="5.20872">
        <ele>117</ele>
        <time>2020-05-26T13:54:08Z</time>
      </trkpt>
      <trkpt lat="43.63119" lon="5.20862">
        <ele>121</ele>
        <time>2020-05-26T13:54:21Z</time>
      </trkpt>
      <trkpt lat="43.63113" lon="5.20851">
        <ele>121</ele>
        <time>2020-05-26T13:54:32Z</time>
      </trkpt>
      <trkpt lat="43.6311" lon="5.20838">
        <ele>123</ele>
        <time>2020-05-26T13:54:43Z</time>
      </trkpt>
      <trkpt lat="43.63106" lon="5.20826">
        <ele>122</ele>
        <time>2020-05-26T13:54:51Z</time>
      </trkpt>
      <trkpt lat="43.63104" lon="5.20811">
        <ele>121</ele>
        <time>2020-05-26T13:55:03Z</time>
      </trkpt>
      <trkpt lat="43.63104" lon="5.20797">
        <ele>119</ele>
        <time>2020-05-26T13:55:11Z</time>
      </trkpt>
      <trkpt lat="43.63105" lon="5.20784">
        <ele>118</ele>
        <time>2020-05-26T13:55:21Z</time>
      </trkpt>
      <trkpt lat="43.6311" lon="5.20773">
        <ele>120</ele>
        <time>2020-05-26T13:55:32Z</time>
      </trkpt>
      <trkpt lat="43.63113" lon="5.20761">
        <ele>120</ele>
        <time>2020-05-26T13:55:42Z</time>
      </trkpt>
      <trkpt lat="43.63115" lon="5.20749">
        <ele>120</ele>
        <time>2020-05-26T13:55:53Z</time>
      </trkpt>
      <trkpt lat="43.63119" lon="5.20736">
        <ele>119</ele>
        <time>2020-05-26T13:56:05Z</time>
      </trkpt>
      <trkpt lat="43.63122" lon="5.20723">
        <ele>118</ele>
        <time>2020-05-26T13:56:18Z</time>
      </trkpt>
      <trkpt lat="43.63124" lon="5.20711">
        <ele>117</ele>
        <time>2020-05-26T13:56:27Z</time>
      </trkpt>
      <trkpt lat="43.63127" lon="5.20697">
        <ele>119</ele>
        <time>2020-05-26T13:56:36Z</time>
      </trkpt>
      <trkpt lat="43.63128" lon="5.20684">
        <ele>120</ele>
        <time>2020-05-26T13:56:47Z</time>
      </trkpt>
      <trkpt lat="43.63128" lon="5.20672">
        <ele>120</ele>
        <time>2020-05-26T13:56:56Z</time>
      </trkpt>
      <trkpt lat="43.63131" lon="5.20659">
        <ele>118</ele>
        <time>2020-05-26T13:57:07Z</time>
      </trkpt>
      <trkpt lat="43.63129" lon="5.20646">
        <ele>119</ele>
        <time>2020-05-26T13:57:18Z</time>
      </trkpt>
      <trkpt lat="43.63128" lon="5.20629">
        <ele>117</ele>
        <time>2020-05-26T13:57:33Z</time>
      </trkpt>
      <trkpt lat="43.63124" lon="5.20617">
        <ele>116</ele>
        <time>2020-05-26T13:57:42Z</time>
      </trkpt>
      <trkpt lat="43.63121" lon="5.20605">
        <ele>113</ele>
        <time>2020-05-26T13:59:09Z</time>
      </trkpt>
      <trkpt lat="43.63115" lon="5.20594">
        <ele>114</ele>
        <time>2020-05-26T13:59:18Z</time>
      </trkpt>
      <trkpt lat="43.63112" lon="5.20583">
        <ele>115</ele>
        <time>2020-05-26T13:59:27Z</time>
      </trkpt>
      <trkpt lat="43.63107" lon="5.20572">
        <ele>115</ele>
        <time>2020-05-26T13:59:40Z</time>
      </trkpt>
      <trkpt lat="43.631" lon="5.20563">
        <ele>114</ele>
        <time>2020-05-26T13:59:52Z</time>
      </trkpt>
      <trkpt lat="43.63098" lon="5.20549">
        <ele>115</ele>
        <time>2020-05-26T14:00:04Z</time>
      </trkpt>
      <trkpt lat="43.63093" lon="5.20539">
        <ele>115</ele>
        <time>2020-05-26T14:00:13Z</time>
      </trkpt>
      <trkpt lat="43.63087" lon="5.20529">
        <ele>115</ele>
        <time>2020-05-26T14:00:23Z</time>
      </trkpt>
      <trkpt lat="43.6308" lon="5.2052">
        <ele>115</ele>
        <time>2020-05-26T14:00:33Z</time>
      </trkpt>
      <trkpt lat="43.63072" lon="5.20513">
        <ele>115</ele>
        <time>2020-05-26T14:00:44Z</time>
      </trkpt>
      <trkpt lat="43.63065" lon="5.20506">
        <ele>115</ele>
        <time>2020-05-26T14:00:57Z</time>
      </trkpt>
      <trkpt lat="43.63057" lon="5.20498">
        <ele>115</ele>
        <time>2020-05-26T14:01:07Z</time>
      </trkpt>
      <trkpt lat="43.63048" lon="5.20493">
        <ele>117</ele>
        <time>2020-05-26T14:01:27Z</time>
      </trkpt>
      <trkpt lat="43.6304" lon="5.20501">
        <ele>116</ele>
        <time>2020-05-26T14:01:41Z</time>
      </trkpt>
      <trkpt lat="43.63032" lon="5.20505">
        <ele>114</ele>
        <time>2020-05-26T14:01:52Z</time>
      </trkpt>
      <trkpt lat="43.63022" lon="5.20508">
        <ele>114</ele>
        <time>2020-05-26T14:02:03Z</time>
      </trkpt>
      <trkpt lat="43.63012" lon="5.20509">
        <ele>116</ele>
        <time>2020-05-26T14:02:17Z</time>
      </trkpt>
      <trkpt lat="43.63003" lon="5.20512">
        <ele>116</ele>
        <time>2020-05-26T14:02:27Z</time>
      </trkpt>
      <trkpt lat="43.62993" lon="5.20515">
        <ele>117</ele>
        <time>2020-05-26T14:02:38Z</time>
      </trkpt>
      <trkpt lat="43.62984" lon="5.20519">
        <ele>118</ele>
        <time>2020-05-26T14:02:47Z</time>
      </trkpt>
      <trkpt lat="43.62974" lon="5.20522">
        <ele>118</ele>
        <time>2020-05-26T14:02:58Z</time>
      </trkpt>
      <trkpt lat="43.62965" lon="5.20524">
        <ele>118</ele>
        <time>2020-05-26T14:03:08Z</time>
      </trkpt>
      <trkpt lat="43.62955" lon="5.20528">
        <ele>119</ele>
        <time>2020-05-26T14:03:19Z</time>
      </trkpt>
      <trkpt lat="43.62946" lon="5.2053">
        <ele>120</ele>
        <time>2020-05-26T14:03:28Z</time>
      </trkpt>
      <trkpt lat="43.62936" lon="5.20531">
        <ele>122</ele>
        <time>2020-05-26T14:03:39Z</time>
      </trkpt>
      <trkpt lat="43.62927" lon="5.20532">
        <ele>123</ele>
        <time>2020-05-26T14:03:48Z</time>
      </trkpt>
      <trkpt lat="43.62917" lon="5.20535">
        <ele>121</ele>
        <time>2020-05-26T14:03:58Z</time>
      </trkpt>
      <trkpt lat="43.62909" lon="5.2054">
        <ele>119</ele>
        <time>2020-05-26T14:04:09Z</time>
      </trkpt>
      <trkpt lat="43.629" lon="5.20543">
        <ele>115</ele>
        <time>2020-05-26T14:04:19Z</time>
      </trkpt>
      <trkpt lat="43.62891" lon="5.20541">
        <ele>115</ele>
        <time>2020-05-26T14:04:32Z</time>
      </trkpt>
      <trkpt lat="43.62881" lon="5.20537">
        <ele>114</ele>
        <time>2020-05-26T14:04:44Z</time>
      </trkpt>
      <trkpt lat="43.62873" lon="5.20534">
        <ele>116</ele>
        <time>2020-05-26T14:04:54Z</time>
      </trkpt>
      <trkpt lat="43.62864" lon="5.20529">
        <ele>118</ele>
        <time>2020-05-26T14:05:06Z</time>
      </trkpt>
      <trkpt lat="43.62855" lon="5.20525">
        <ele>117</ele>
        <time>2020-05-26T14:05:16Z</time>
      </trkpt>
      <trkpt lat="43.62846" lon="5.20519">
        <ele>119</ele>
        <time>2020-05-26T14:05:27Z</time>
      </trkpt>
      <trkpt lat="43.62837" lon="5.20515">
        <ele>118</ele>
        <time>2020-05-26T14:05:37Z</time>
      </trkpt>
      <trkpt lat="43.62827" lon="5.2051">
        <ele>118</ele>
        <time>2020-05-26T14:05:47Z</time>
      </trkpt>
      <trkpt lat="43.62818" lon="5.2051">
        <ele>117</ele>
        <time>2020-05-26T14:05:56Z</time>
      </trkpt>
      <trkpt lat="43.62808" lon="5.20512">
        <ele>117</ele>
        <time>2020-05-26T14:06:07Z</time>
      </trkpt>
      <trkpt lat="43.62799" lon="5.20513">
        <ele>116</ele>
        <time>2020-05-26T14:06:17Z</time>
      </trkpt>
      <trkpt lat="43.6279" lon="5.20514">
        <ele>115</ele>
        <time>2020-05-26T14:06:26Z</time>
      </trkpt>
      <trkpt lat="43.62781" lon="5.20513">
        <ele>117</ele>
        <time>2020-05-26T14:06:46Z</time>
      </trkpt>
      <trkpt lat="43.62772" lon="5.20516">
        <ele>116</ele>
        <time>2020-05-26T14:06:57Z</time>
      </trkpt>
      <trkpt lat="43.6276" lon="5.20518">
        <ele>110</ele>
        <time>2020-05-26T14:08:00Z</time>
      </trkpt>
      <trkpt lat="43.6275" lon="5.20516">
        <ele>112</ele>
        <time>2020-05-26T14:08:11Z</time>
      </trkpt>
      <trkpt lat="43.6274" lon="5.20517">
        <ele>111</ele>
        <time>2020-05-26T14:08:26Z</time>
      </trkpt>
      <trkpt lat="43.6273" lon="5.20517">
        <ele>112</ele>
        <time>2020-05-26T14:08:37Z</time>
      </trkpt>
      <trkpt lat="43.62721" lon="5.20517">
        <ele>114</ele>
        <time>2020-05-26T14:08:47Z</time>
      </trkpt>
      <trkpt lat="43.62711" lon="5.20517">
        <ele>114</ele>
        <time>2020-05-26T14:08:57Z</time>
      </trkpt>
      <trkpt lat="43.62702" lon="5.20517">
        <ele>114</ele>
        <time>2020-05-26T14:09:05Z</time>
      </trkpt>
      <trkpt lat="43.62692" lon="5.20517">
        <ele>113</ele>
        <time>2020-05-26T14:09:15Z</time>
      </trkpt>
      <trkpt lat="43.62683" lon="5.20512">
        <ele>112</ele>
        <time>2020-05-26T14:09:27Z</time>
      </trkpt>
      <trkpt lat="43.62675" lon="5.20506">
        <ele>112</ele>
        <time>2020-05-26T14:09:38Z</time>
      </trkpt>
      <trkpt lat="43.62666" lon="5.205">
        <ele>112</ele>
        <time>2020-05-26T14:09:48Z</time>
      </trkpt>
      <trkpt lat="43.62656" lon="5.20498">
        <ele>113</ele>
        <time>2020-05-26T14:09:59Z</time>
      </trkpt>
      <trkpt lat="43.62645" lon="5.20494">
        <ele>112</ele>
        <time>2020-05-26T14:10:15Z</time>
      </trkpt>
      <trkpt lat="43.62637" lon="5.2049">
        <ele>113</ele>
        <time>2020-05-26T14:10:26Z</time>
      </trkpt>
      <trkpt lat="43.62627" lon="5.20491">
        <ele>114</ele>
        <time>2020-05-26T14:10:38Z</time>
      </trkpt>
      <trkpt lat="43.62618" lon="5.20491">
        <ele>114</ele>
        <time>2020-05-26T14:10:48Z</time>
      </trkpt>
      <trkpt lat="43.62608" lon="5.20491">
        <ele>115</ele>
        <time>2020-05-26T14:11:00Z</time>
      </trkpt>
      <trkpt lat="43.62598" lon="5.20492">
        <ele>116</ele>
        <time>2020-05-26T14:11:11Z</time>
      </trkpt>
      <trkpt lat="43.62589" lon="5.2049">
        <ele>115</ele>
        <time>2020-05-26T14:11:24Z</time>
      </trkpt>
      <trkpt lat="43.62579" lon="5.2049">
        <ele>113</ele>
        <time>2020-05-26T14:11:35Z</time>
      </trkpt>
      <trkpt lat="43.6257" lon="5.20487">
        <ele>112</ele>
        <time>2020-05-26T14:11:44Z</time>
      </trkpt>
      <trkpt lat="43.62561" lon="5.20486">
        <ele>113</ele>
        <time>2020-05-26T14:11:53Z</time>
      </trkpt>
      <trkpt lat="43.62551" lon="5.20487">
        <ele>117</ele>
        <time>2020-05-26T14:12:04Z</time>
      </trkpt>
      <trkpt lat="43.62542" lon="5.20487">
        <ele>117</ele>
        <time>2020-05-26T14:12:13Z</time>
      </trkpt>
      <trkpt lat="43.62532" lon="5.20485">
        <ele>118</ele>
        <time>2020-05-26T14:12:25Z</time>
      </trkpt>
      <trkpt lat="43.62522" lon="5.20487">
        <ele>116</ele>
        <time>2020-05-26T14:12:37Z</time>
      </trkpt>
      <trkpt lat="43.62513" lon="5.20488">
        <ele>116</ele>
        <time>2020-05-26T14:12:48Z</time>
      </trkpt>
      <trkpt lat="43.62504" lon="5.20491">
        <ele>118</ele>
        <time>2020-05-26T14:13:01Z</time>
      </trkpt>
      <trkpt lat="43.62495" lon="5.20494">
        <ele>120</ele>
        <time>2020-05-26T14:13:13Z</time>
      </trkpt>
    </trkseg>
  </trk>
</gpx>